createdAt,value
2022-11-26T00:01:42.474Z,84.00
2022-11-26T00:04:10.745Z,84.20
2022-11-26T00:06:39.587Z,84.30
2022-11-26T00:09:14.708Z,84.40
2022-11-26T00:11:42.571Z,84.30
2022-11-26T00:14:14.642Z,84.20
2022-11-26T00:16:42.698Z,84.10
2022-11-26T00:19:10.644Z,84.00
2022-11-26T00:21:39.411Z,83.90
2022-11-26T00:24:25.770Z,83.80
2022-11-26T00:26:53.743Z,84.10
2022-11-26T00:29:22.908Z,83.90
2022-11-26T00:31:50.787Z,83.80
2022-11-26T00:34:18.733Z,83.70
2022-11-26T00:36:47.153Z,83.80
2022-11-26T00:39:17.684Z,83.90
2022-11-26T00:41:46.999Z,83.90
2022-11-26T00:44:17.683Z,84.00
2022-11-26T00:46:47.014Z,84.00
2022-11-26T00:49:15.038Z,84.20
2022-11-26T00:51:43.434Z,84.40
2022-11-26T00:54:12.813Z,84.40
2022-11-26T00:56:41.042Z,84.60
2022-11-26T00:59:10.649Z,84.80
2022-11-26T01:01:38.552Z,84.40
2022-11-26T01:04:07.983Z,84.40
2022-11-26T01:06:36.861Z,84.50
2022-11-26T01:09:08.331Z,84.50
2022-11-26T01:11:37.392Z,84.50
2022-11-26T01:14:14.503Z,84.30
2022-11-26T01:16:43.147Z,84.20
2022-11-26T01:19:13.453Z,84.20
2022-11-26T01:21:41.595Z,84.00
2022-11-26T01:24:09.772Z,83.80
2022-11-26T01:26:39.752Z,83.80
2022-11-26T01:29:08.588Z,83.80
2022-11-26T01:31:36.744Z,83.80
2022-11-26T01:34:04.716Z,83.80
2022-11-26T01:36:35.127Z,83.80
2022-11-26T01:39:04.781Z,84.20
2022-11-26T01:41:45.475Z,84.10
2022-11-26T01:44:18.314Z,84.20
2022-11-26T01:46:47.075Z,84.20
2022-11-26T01:49:19.742Z,84.50
2022-11-26T01:51:50.045Z,84.60
2022-11-26T01:54:18.118Z,84.60
2022-11-26T01:56:48.491Z,84.60
2022-11-26T01:59:18.832Z,84.60
2022-11-26T02:01:46.827Z,84.60
2022-11-26T02:04:17.799Z,84.60
2022-11-26T02:06:46.409Z,84.70
2022-11-26T02:09:15.823Z,84.70
2022-11-26T02:11:43.691Z,84.70
2022-11-26T02:14:13.772Z,84.50
2022-11-26T02:17:02.534Z,84.60
2022-11-26T02:19:41.820Z,84.70
2022-11-26T02:22:13.865Z,84.30
2022-11-26T02:24:49.575Z,84.30
2022-11-26T02:27:25.916Z,84.30
2022-11-26T02:30:03.305Z,84.30
2022-11-26T02:32:33.168Z,84.40
2022-11-26T02:35:03.249Z,84.30
2022-11-26T02:37:35.777Z,84.20
2022-11-26T02:40:03.857Z,84.00
2022-11-26T02:42:33.210Z,84.10
2022-11-26T02:45:04.220Z,84.20
2022-11-26T02:47:33.710Z,84.30
2022-11-26T02:50:03.738Z,84.50
2022-11-26T02:52:32.983Z,84.60
2022-11-26T02:55:01.733Z,84.70
2022-11-26T02:57:31.530Z,84.90
2022-11-26T02:59:59.404Z,84.90
2022-11-26T03:02:32.028Z,84.90
2022-11-26T03:05:01.138Z,84.80
2022-11-26T03:07:29.866Z,84.80
2022-11-26T03:09:58.782Z,84.70
2022-11-26T03:12:27.124Z,84.70
2022-11-26T03:14:55.254Z,84.70
2022-11-26T03:17:23.389Z,84.70
2022-11-26T03:19:52.708Z,84.70
2022-11-26T03:22:22.460Z,84.60
2022-11-26T03:24:50.683Z,84.50
2022-11-26T03:27:18.563Z,84.60
2022-11-26T03:29:46.439Z,84.80
2022-11-26T03:32:14.269Z,84.80
2022-11-26T03:34:42.879Z,84.70
2022-11-26T03:37:12.218Z,84.60
2022-11-26T03:39:40.118Z,84.50
2022-11-26T03:42:07.978Z,84.30
2022-11-26T03:44:36.376Z,84.20
2022-11-26T03:47:05.294Z,84.10
2022-11-26T03:49:33.139Z,84.20
2022-11-26T03:52:01.026Z,84.30
2022-11-26T03:54:30.378Z,84.30
2022-11-26T03:56:58.228Z,84.30
2022-11-26T03:59:26.098Z,84.40
2022-11-26T04:01:54.062Z,84.50
2022-11-26T04:04:22.023Z,84.60
2022-11-26T04:06:49.940Z,84.60
2022-11-26T04:09:17.848Z,84.70
2022-11-26T04:11:49.390Z,84.70
2022-11-26T04:14:17.236Z,84.70
2022-11-26T04:16:45.103Z,84.70
2022-11-26T04:19:13.009Z,84.70
2022-11-26T04:21:40.845Z,84.70
2022-11-26T04:24:09.042Z,84.70
2022-11-26T04:26:37.245Z,84.60
2022-11-26T04:29:07.778Z,84.50
2022-11-26T04:31:35.724Z,84.40
2022-11-26T04:34:03.654Z,84.30
2022-11-26T04:36:31.432Z,84.30
2022-11-26T04:38:59.364Z,84.20
2022-11-26T04:41:27.265Z,84.20
2022-11-26T04:43:55.243Z,84.10
2022-11-26T04:46:24.478Z,84.20
2022-11-26T04:48:52.391Z,84.30
2022-11-26T04:51:20.185Z,84.40
2022-11-26T04:53:48.070Z,84.40
2022-11-26T04:56:15.990Z,84.50
2022-11-26T04:58:43.999Z,84.60
2022-11-26T05:01:11.941Z,84.60
2022-11-26T05:03:41.209Z,84.60
2022-11-26T05:06:09.235Z,84.50
2022-11-26T05:08:37.150Z,84.60
2022-11-26T05:11:05.010Z,84.60
2022-11-26T05:13:32.946Z,84.60
2022-11-26T05:16:00.815Z,84.50
2022-11-26T05:18:28.616Z,84.60
2022-11-26T05:20:57.890Z,84.60
2022-11-26T05:23:25.734Z,84.60
2022-11-26T05:25:53.598Z,84.50
2022-11-26T05:28:21.451Z,84.70
2022-11-26T05:30:49.470Z,84.80
2022-11-26T05:33:17.289Z,84.80
2022-11-26T05:35:45.134Z,84.90
2022-11-26T05:38:14.279Z,85.10
2022-11-26T05:40:43.103Z,85.10
2022-11-26T05:43:11.053Z,85.20
2022-11-26T05:45:38.976Z,85.10
2022-11-26T05:48:06.993Z,85.10
2022-11-26T05:50:34.865Z,85.10
2022-11-26T05:53:02.843Z,85.10
2022-11-26T05:55:32.249Z,84.90
2022-11-26T05:58:00.148Z,84.90
2022-11-26T06:00:28.426Z,84.90
2022-11-26T06:02:58.319Z,84.80
2022-11-26T06:05:26.400Z,84.80
2022-11-26T06:07:54.276Z,84.70
2022-11-26T06:10:22.161Z,84.50
2022-11-26T06:12:51.436Z,84.30
2022-11-26T06:15:19.535Z,84.30
2022-11-26T06:17:47.371Z,84.30
2022-11-26T06:20:15.511Z,84.30
2022-11-26T06:22:44.444Z,84.30
2022-11-26T06:25:13.822Z,84.40
2022-11-26T06:27:42.169Z,84.50
2022-11-26T06:30:12.288Z,84.50
2022-11-26T06:32:40.149Z,84.40
2022-11-26T06:35:08.171Z,84.60
2022-11-26T06:37:36.197Z,84.60
2022-11-26T06:40:04.326Z,84.60
2022-11-26T06:42:32.311Z,84.60
2022-11-26T06:45:00.386Z,84.70
2022-11-26T06:47:29.593Z,84.80
2022-11-26T06:49:57.562Z,84.90
2022-11-26T06:52:25.485Z,85.00
2022-11-26T06:54:53.568Z,85.00
2022-11-26T06:57:21.493Z,85.10
2022-11-26T06:59:49.474Z,85.10
2022-11-26T07:02:17.491Z,85.20
2022-11-26T07:04:48.368Z,85.30
2022-11-26T07:07:16.436Z,85.40
2022-11-26T07:09:44.364Z,85.40
2022-11-26T07:12:12.552Z,85.40
2022-11-26T07:14:40.912Z,85.30
2022-11-26T07:17:09.106Z,85.40
2022-11-26T07:19:37.134Z,85.40
2022-11-26T07:22:06.498Z,85.50
2022-11-26T07:24:35.408Z,85.50
2022-11-26T07:27:03.416Z,85.40
2022-11-26T07:29:31.526Z,85.50
2022-11-26T07:32:03.759Z,85.50
2022-11-26T07:34:31.917Z,85.40
2022-11-26T07:36:59.831Z,85.40
2022-11-26T07:39:29.163Z,85.50
2022-11-26T07:41:58.296Z,85.30
2022-11-26T07:44:28.719Z,85.10
2022-11-26T07:46:58.157Z,85.00
2022-11-26T07:49:26.122Z,84.70
2022-11-26T07:51:54.626Z,84.40
2022-11-26T07:54:22.668Z,84.20
2022-11-26T07:56:51.877Z,84.30
2022-11-26T08:05:12.184Z,84.20
2022-11-26T08:07:40.347Z,84.10
2022-11-26T08:10:08.915Z,83.40
2022-11-26T08:12:38.197Z,82.90
2022-11-26T08:15:07.037Z,83.30
2022-11-26T08:17:35.072Z,83.50
2022-11-26T08:20:03.167Z,82.90
2022-11-26T08:22:31.185Z,81.90
2022-11-26T08:24:59.124Z,81.40
2022-11-26T08:27:27.114Z,81.30
2022-11-26T08:29:56.547Z,81.30
2022-11-26T08:32:24.771Z,81.50
2022-11-26T08:34:52.784Z,82.20
2022-11-26T08:37:20.799Z,82.30
2022-11-26T08:39:48.950Z,82.50
2022-11-26T08:42:18.419Z,82.80
2022-11-26T08:44:46.525Z,82.30
2022-11-26T08:47:16.114Z,82.20
2022-11-26T08:49:44.395Z,82.30
2022-11-26T08:52:12.684Z,82.10
2022-11-26T08:54:44.797Z,81.20
2022-11-26T08:57:13.556Z,80.20
2022-11-26T08:59:42.023Z,78.40
2022-11-26T09:02:16.017Z,78.40
2022-11-26T09:04:47.901Z,78.90
2022-11-26T09:07:15.959Z,78.00
2022-11-26T09:09:44.184Z,78.40
2022-11-26T09:12:12.254Z,75.70
2022-11-26T09:14:45.220Z,76.20
2022-11-26T09:17:13.384Z,74.80
2022-11-26T09:19:41.622Z,75.20
2022-11-26T09:22:10.896Z,76.10
2022-11-26T09:24:41.262Z,76.60
2022-11-26T09:27:11.198Z,77.60
2022-11-26T09:29:39.358Z,77.90
2022-11-26T09:32:24.436Z,78.90
2022-11-26T09:34:54.959Z,79.80
2022-11-26T09:37:24.984Z,80.70
2022-11-26T09:39:54.921Z,80.00
2022-11-26T09:42:28.843Z,80.50
2022-11-26T09:45:02.853Z,81.30
2022-11-26T09:47:34.647Z,81.70
2022-11-26T09:50:07.851Z,81.60
2022-11-26T09:52:39.327Z,81.90
2022-11-26T09:55:13.724Z,81.90
2022-11-26T09:57:42.845Z,81.70
2022-11-26T10:00:21.369Z,82.20
2022-11-26T10:02:49.347Z,80.80
2022-11-26T10:05:21.249Z,80.30
2022-11-26T10:07:58.958Z,79.70
2022-11-26T10:10:30.128Z,78.60
2022-11-26T10:13:19.498Z,75.50
2022-11-26T10:15:53.289Z,73.10
2022-11-26T10:18:25.528Z,73.40
2022-11-26T10:21:03.359Z,74.10
2022-11-26T10:23:34.975Z,74.30
2022-11-26T10:26:06.248Z,72.20
2022-11-26T10:28:36.480Z,71.30
2022-11-26T10:31:05.935Z,70.90
2022-11-26T10:33:35.046Z,70.70
2022-11-26T10:36:03.687Z,71.50
2022-11-26T10:38:34.562Z,70.00
2022-11-26T10:41:02.731Z,69.70
2022-11-26T10:43:31.214Z,69.20
2022-11-26T10:45:59.510Z,69.50
2022-11-26T10:48:28.786Z,69.20
2022-11-26T10:51:04.663Z,68.00
2022-11-26T10:53:36.965Z,69.30
2022-11-26T10:56:07.086Z,69.40
2022-11-26T10:58:39.823Z,67.70
2022-11-26T11:01:08.412Z,69.00
2022-11-26T11:04:06.874Z,70.30
2022-11-26T11:06:29.078Z,72.20
2022-11-26T11:08:59.071Z,71.90
2022-11-26T11:11:28.337Z,70.30
2022-11-26T11:13:56.773Z,70.50
2022-11-26T11:16:27.964Z,71.10
2022-11-26T11:18:56.880Z,71.30
2022-11-26T11:21:28.490Z,71.20
2022-11-26T11:24:09.247Z,72.40
2022-11-26T11:26:41.191Z,72.60
2022-11-26T11:29:33.219Z,74.20
2022-11-26T11:32:02.103Z,74.40
2022-11-26T11:34:32.691Z,75.10
2022-11-26T11:37:01.939Z,75.30
2022-11-26T11:39:32.990Z,76.20
2022-11-26T11:42:02.322Z,76.20
2022-11-26T11:44:36.904Z,76.50
2022-11-26T11:47:11.078Z,76.90
2022-11-26T11:49:44.992Z,77.00
2022-11-26T11:52:17.004Z,76.50
2022-11-26T11:54:52.673Z,77.00
2022-11-26T11:57:25.713Z,77.20
2022-11-26T12:00:11.889Z,77.30
2022-11-26T12:02:57.313Z,77.20
2022-11-26T12:05:39.289Z,77.10
2022-11-26T12:08:13.326Z,77.20
2022-11-26T12:10:48.658Z,77.50
2022-11-26T12:13:17.582Z,77.30
2022-11-26T12:15:51.667Z,77.80
2022-11-26T12:18:23.640Z,77.30
2022-11-26T12:20:55.789Z,77.40
2022-11-26T12:23:30.295Z,77.60
2022-11-26T12:26:06.255Z,77.50
2022-11-26T12:28:38.469Z,77.80
2022-11-26T12:31:08.131Z,78.20
2022-11-26T12:33:47.105Z,78.00
2022-11-26T12:36:18.219Z,77.60
2022-11-26T12:38:49.816Z,78.30
2022-11-26T12:41:24.455Z,78.30
2022-11-26T12:43:59.754Z,77.80
2022-11-26T12:46:33.555Z,78.00
2022-11-26T12:49:04.427Z,78.40
2022-11-26T12:51:34.525Z,78.30
2022-11-26T12:54:07.869Z,77.70
2022-11-26T12:56:41.019Z,77.70
2022-11-26T12:59:11.595Z,77.80
2022-11-26T13:01:39.782Z,77.90
2022-11-26T13:04:36.064Z,77.80
2022-11-26T13:07:09.306Z,78.30
2022-11-26T13:09:55.161Z,78.30
2022-11-26T13:12:28.244Z,78.40
2022-11-26T13:15:00.833Z,78.30
2022-11-26T13:17:31.932Z,78.60
2022-11-26T13:20:05.315Z,78.50
2022-11-26T13:22:51.337Z,78.60
2022-11-26T13:25:31.005Z,78.50
2022-11-26T13:28:04.185Z,78.50
2022-11-26T13:30:36.162Z,78.60
2022-11-26T13:33:22.066Z,78.50
2022-11-26T13:36:05.407Z,78.90
2022-11-26T13:38:42.058Z,79.20
2022-11-26T13:41:21.327Z,79.10
2022-11-26T13:44:07.338Z,78.90
2022-11-26T13:46:39.586Z,78.90
2022-11-26T13:49:09.385Z,78.80
2022-11-26T13:51:39.666Z,78.50
2022-11-26T13:54:10.246Z,78.60
2022-11-26T13:56:39.191Z,77.80
2022-11-26T13:59:09.845Z,77.80
2022-11-26T14:01:40.705Z,78.00
2022-11-26T14:04:09.219Z,77.90
2022-11-26T14:06:37.569Z,78.00
2022-11-26T14:09:06.482Z,78.00
2022-11-26T14:11:54.425Z,77.80
2022-11-26T14:14:34.982Z,77.90
2022-11-26T14:17:17.870Z,77.80
2022-11-26T14:20:01.834Z,77.80
2022-11-26T14:22:31.169Z,77.90
2022-11-26T14:25:00.388Z,77.90
2022-11-26T14:27:29.800Z,78.20
2022-11-26T14:30:03.401Z,78.40
2022-11-26T14:32:34.731Z,78.30
2022-11-26T14:35:02.693Z,78.50
2022-11-26T14:37:31.313Z,78.60
2022-11-26T14:39:59.795Z,78.50
2022-11-26T14:42:28.273Z,78.40
2022-11-26T14:45:03.436Z,78.20
2022-11-26T14:47:33.815Z,78.20
2022-11-26T14:50:03.712Z,78.20
2022-11-26T14:52:33.720Z,78.30
2022-11-26T14:55:03.781Z,78.50
2022-11-26T14:57:37.220Z,78.20
2022-11-26T15:00:08.168Z,78.20
2022-11-26T15:02:40.742Z,78.30
2022-11-26T15:05:15.303Z,78.20
2022-11-26T15:07:47.320Z,78.20
2022-11-26T15:10:19.646Z,78.40
2022-11-26T15:12:48.292Z,78.30
2022-11-26T15:15:17.772Z,78.50
2022-11-26T15:17:48.154Z,78.50
2022-11-26T15:20:17.045Z,78.70
2022-11-26T15:22:49.477Z,78.80
2022-11-26T15:25:19.656Z,78.80
2022-11-26T15:27:54.063Z,78.90
2022-11-26T15:30:22.849Z,78.80
2022-11-26T15:32:58.663Z,78.70
2022-11-26T15:35:26.620Z,78.80
2022-11-26T15:37:54.643Z,78.80
2022-11-26T15:40:23.848Z,78.90
2022-11-26T15:42:54.449Z,78.90
2022-11-26T15:45:23.863Z,79.00
2022-11-26T15:47:54.319Z,79.30
2022-11-26T15:50:27.554Z,79.40
2022-11-26T15:52:57.005Z,79.50
2022-11-26T15:55:28.618Z,79.70
2022-11-26T15:57:57.710Z,79.80
2022-11-26T16:00:29.427Z,79.80
2022-11-26T16:02:57.499Z,79.80
2022-11-26T16:05:28.948Z,79.70
2022-11-26T16:07:58.097Z,79.70
2022-11-26T16:10:27.239Z,79.70
2022-11-26T16:13:23.031Z,79.80
2022-11-26T16:15:52.285Z,79.70
2022-11-26T16:18:21.848Z,79.70
2022-11-26T16:20:51.105Z,79.50
2022-11-26T16:23:25.242Z,79.70
2022-11-26T16:26:13.597Z,79.90
2022-11-26T16:28:41.787Z,79.90
2022-11-26T16:31:10.089Z,80.00
2022-11-26T16:33:39.142Z,79.90
2022-11-26T16:36:25.163Z,79.90
2022-11-26T16:38:55.667Z,80.00
2022-11-26T16:41:23.923Z,79.90
2022-11-26T16:43:51.894Z,79.90
2022-11-26T16:46:21.363Z,80.00
2022-11-26T16:48:49.393Z,79.90
2022-11-26T16:51:17.832Z,79.90
2022-11-26T16:53:45.881Z,79.80
2022-11-26T16:56:19.237Z,79.90
2022-11-26T16:58:47.303Z,79.90
2022-11-26T17:01:15.249Z,79.90
2022-11-26T17:03:43.837Z,79.70
2022-11-26T17:06:13.865Z,79.40
2022-11-26T17:08:47.901Z,79.50
2022-11-26T17:11:19.017Z,79.70
2022-11-26T17:13:47.179Z,80.20
2022-11-26T17:16:16.824Z,80.20
2022-11-26T17:18:45.012Z,79.90
2022-11-26T17:21:12.953Z,80.20
2022-11-26T17:23:41.147Z,80.30
2022-11-26T17:26:14.995Z,80.30
2022-11-26T17:28:44.311Z,80.00
2022-11-26T17:31:12.446Z,80.30
2022-11-26T17:33:40.745Z,80.50
2022-11-26T17:36:14.658Z,80.30
2022-11-26T17:38:42.791Z,80.40
2022-11-26T17:41:11.537Z,80.50
2022-11-26T17:43:39.834Z,80.60
2022-11-26T17:46:14.263Z,80.90
2022-11-26T17:48:42.475Z,81.20
2022-11-26T17:51:12.132Z,81.20
2022-11-26T17:53:40.701Z,81.30
2022-11-26T17:56:15.642Z,81.30
2022-11-26T17:58:44.308Z,81.20
2022-11-26T18:01:14.958Z,81.50
2022-11-26T18:03:43.474Z,81.50
2022-11-26T18:06:15.708Z,81.60
2022-11-26T18:08:44.094Z,81.70
2022-11-26T18:11:12.483Z,81.60
2022-11-26T18:13:40.836Z,81.50
2022-11-26T18:16:09.430Z,81.60
2022-11-26T18:18:39.082Z,81.70
2022-11-26T18:21:07.479Z,81.80
2022-11-26T18:23:35.726Z,81.60
2022-11-26T18:26:03.977Z,81.60
2022-11-26T18:28:32.084Z,81.50
2022-11-26T18:31:00.536Z,81.50
2022-11-26T18:33:28.650Z,81.40
2022-11-26T18:35:58.064Z,81.40
2022-11-26T18:38:28.980Z,81.30
2022-11-26T18:41:02.285Z,81.30
2022-11-26T18:43:30.714Z,81.30
2022-11-26T18:45:59.037Z,81.10
2022-11-26T18:48:27.098Z,81.10
2022-11-26T18:51:00.706Z,81.10
2022-11-26T18:53:29.610Z,80.70
2022-11-26T18:55:59.613Z,80.20
2022-11-26T18:58:28.021Z,80.10
2022-11-26T19:00:58.729Z,80.30
2022-11-26T19:03:27.724Z,80.30
2022-11-26T19:05:55.971Z,80.20
2022-11-26T19:08:25.990Z,80.60
2022-11-26T19:10:54.350Z,80.40
2022-11-26T19:13:22.552Z,80.70
2022-11-26T19:15:50.665Z,80.60
2022-11-26T19:18:18.822Z,80.70
2022-11-26T19:20:48.252Z,81.00
2022-11-26T19:23:16.594Z,81.50
2022-11-26T19:25:46.262Z,81.40
2022-11-26T19:28:14.510Z,81.40
2022-11-26T19:30:43.216Z,81.30
2022-11-26T19:33:11.199Z,81.00
2022-11-26T19:35:39.702Z,81.00
2022-11-26T19:38:07.674Z,81.30
2022-11-26T19:40:36.641Z,81.40
2022-11-26T19:43:05.928Z,81.40
2022-11-26T19:45:34.940Z,81.30
2022-11-26T19:48:03.024Z,81.40
2022-11-26T19:50:30.943Z,81.60
2022-11-26T19:52:58.841Z,81.50
2022-11-26T19:55:27.365Z,81.30
2022-11-26T19:57:55.614Z,81.20
2022-11-26T20:00:24.953Z,80.90
2022-11-26T20:02:53.030Z,80.60
2022-11-26T20:05:21.121Z,79.50
2022-11-26T20:07:50.060Z,79.30
2022-11-26T20:10:20.990Z,79.50
2022-11-26T20:12:49.463Z,79.60
2022-11-26T20:15:26.098Z,79.70
2022-11-26T20:17:55.612Z,79.50
2022-11-26T20:20:23.658Z,79.60
2022-11-26T20:22:51.554Z,79.70
2022-11-26T20:25:19.628Z,79.80
2022-11-26T20:27:47.511Z,79.80
2022-11-26T20:30:15.876Z,79.70
2022-11-26T20:32:43.779Z,79.20
2022-11-26T20:35:13.074Z,79.20
2022-11-26T20:37:40.996Z,79.00
2022-11-26T20:40:09.434Z,78.50
2022-11-26T20:42:37.974Z,78.80
2022-11-26T20:45:06.612Z,79.10
2022-11-26T20:47:34.570Z,79.30
2022-11-26T20:50:02.759Z,79.40
2022-11-26T20:52:32.050Z,79.40
2022-11-26T20:55:00.076Z,79.10
2022-11-26T20:57:28.176Z,79.50
2022-11-26T20:59:56.613Z,79.40
2022-11-26T21:02:24.870Z,79.40
2022-11-26T21:04:53.059Z,79.60
2022-11-26T21:07:21.322Z,79.20
2022-11-26T21:09:50.980Z,79.50
2022-11-26T21:12:19.037Z,79.80
2022-11-26T21:14:47.025Z,80.00
2022-11-26T21:17:15.278Z,80.20
2022-11-26T21:19:43.417Z,80.10
2022-11-26T21:22:11.525Z,79.80
2022-11-26T21:24:39.503Z,79.60
2022-11-26T21:27:08.753Z,79.70
2022-11-26T21:29:36.871Z,79.50
2022-11-26T21:32:05.150Z,79.50
2022-11-26T21:34:33.790Z,79.00
2022-11-26T21:37:01.765Z,78.80
2022-11-26T21:39:29.857Z,78.80
2022-11-26T21:41:57.828Z,78.60
2022-11-26T21:44:27.240Z,78.60
2022-11-26T21:46:55.400Z,78.60
2022-11-26T21:49:23.409Z,78.60
2022-11-26T21:51:51.479Z,78.40
2022-11-26T21:54:19.458Z,78.50
2022-11-26T21:56:47.486Z,78.80
2022-11-26T21:59:15.597Z,78.90
2022-11-26T22:01:47.928Z,78.70
2022-11-26T22:04:16.807Z,78.90
2022-11-26T22:06:45.090Z,79.30
2022-11-26T22:09:13.346Z,79.60
2022-11-26T22:11:42.254Z,79.40
2022-11-26T22:14:11.323Z,79.00
2022-11-26T22:16:39.764Z,79.10
2022-11-26T22:19:09.646Z,79.20
2022-11-26T22:21:39.085Z,79.10
2022-11-26T22:24:08.259Z,79.20
2022-11-26T22:26:36.472Z,79.20
2022-11-26T22:29:04.837Z,79.20
2022-11-26T22:31:33.929Z,79.10
2022-11-26T22:34:02.714Z,79.00
2022-11-26T22:36:40.435Z,79.00
2022-11-26T22:39:10.546Z,79.10
2022-11-26T22:41:39.209Z,78.80
2022-11-26T22:44:07.528Z,78.80
2022-11-26T22:46:36.073Z,78.70
2022-11-26T22:49:04.416Z,79.00
2022-11-26T22:51:33.411Z,78.90
2022-11-26T22:54:04.658Z,78.90
2022-11-26T22:56:32.606Z,78.70
2022-11-26T22:59:01.594Z,78.50
2022-11-26T23:01:30.588Z,78.60
2022-11-26T23:03:59.466Z,78.70
2022-11-26T23:06:28.363Z,78.50
2022-11-26T23:08:56.645Z,78.50
2022-11-26T23:11:26.872Z,78.50
2022-11-26T23:13:54.905Z,78.60
2022-11-26T23:16:24.001Z,78.90
2022-11-26T23:18:52.551Z,79.10
2022-11-26T23:21:21.574Z,79.50
2022-11-26T23:23:49.538Z,79.80
2022-11-26T23:26:23.158Z,79.90
2022-11-26T23:28:56.181Z,79.80
2022-11-26T23:31:25.161Z,79.80
2022-11-26T23:33:53.100Z,79.80
2022-11-26T23:36:21.240Z,79.70
2022-11-26T23:38:49.112Z,79.90
2022-11-26T23:41:16.957Z,80.00
2022-11-26T23:43:45.118Z,80.10
2022-11-26T23:46:15.475Z,80.10
2022-11-26T23:48:43.548Z,80.00
2022-11-26T23:51:12.360Z,80.30
2022-11-26T23:53:41.289Z,80.30
2022-11-26T23:56:16.573Z,80.50
2022-11-26T23:58:46.924Z,80.90
